sensor_id;sensor_type;location;lat;lon;timestamp;pressure;altitude;pressure_sealevel;temperature;humidity
26043;BME280;13818;52.156;5.382;2023-02-19T00:01:44;101467.72;;;10.08;100.00
26043;BME280;13818;52.156;5.382;2023-02-19T00:04:12;101478.38;;;10.08;100.00
26043;BME280;13818;52.156;5.382;2023-02-19T00:06:40;101479.31;;;10.07;100.00
26043;BME280;13818;52.156;5.382;2023-02-19T00:09:08;101473.91;;;10.09;100.00
26043;BME280;13818;52.156;5.382;2023-02-19T00:11:35;101480.38;;;10.02;100.00
26043;BME280;13818;52.156;5.382;2023-02-19T00:14:02;101473.28;;;10.02;100.00
26043;BME280;13818;52.156;5.382;2023-02-19T00:16:31;101470.44;;;10.07;100.00
26043;BME280;13818;52.156;5.382;2023-02-19T00:19:00;101476.59;;;10.09;100.00
26043;BME280;13818;52.156;5.382;2023-02-19T00:21:29;101481.16;;;10.05;100.00
26043;BME280;13818;52.156;5.382;2023-02-19T00:23:57;101479.25;;;10.09;100.00
26043;BME280;13818;52.156;5.382;2023-02-19T00:26:25;101482.19;;;10.01;100.00
26043;BME280;13818;52.156;5.382;2023-02-19T00:28:53;101494.59;;;10.01;100.00
26043;BME280;13818;52.156;5.382;2023-02-19T00:31:22;101489.06;;;10.07;100.00
26043;BME280;13818;52.156;5.382;2023-02-19T00:33:50;101482.72;;;10.11;100.00
26043;BME280;13818;52.156;5.382;2023-02-19T00:36:18;101485.22;;;10.16;100.00
26043;BME280;13818;52.156;5.382;2023-02-19T00:38:45;101481.66;;;10.17;100.00
26043;BME280;13818;52.156;5.382;2023-02-19T00:41:13;101489.44;;;10.23;100.00
26043;BME280;13818;52.156;5.382;2023-02-19T00:43:54;101483.53;;;10.13;100.00
26043;BME280;13818;52.156;5.382;2023-02-19T00:46:23;101493.53;;;10.06;100.00
26043;BME280;13818;52.156;5.382;2023-02-19T00:48:50;101490.03;;;10.04;100.00
26043;BME280;13818;52.156;5.382;2023-02-19T00:51:18;101490.19;;;10.00;100.00
26043;BME280;13818;52.156;5.382;2023-02-19T00:53:44;101482.88;;;10.06;100.00
26043;BME280;13818;52.156;5.382;2023-02-19T00:56:11;101491.75;;;10.07;100.00
26043;BME280;13818;52.156;5.382;2023-02-19T00:58:38;101488.03;;;10.11;100.00
26043;BME280;13818;52.156;5.382;2023-02-19T01:01:06;101491.53;;;10.13;100.00
26043;BME280;13818;52.156;5.382;2023-02-19T01:03:34;101490.69;;;10.11;100.00
26043;BME280;13818;52.156;5.382;2023-02-19T01:06:01;101492.72;;;10.04;100.00
26043;BME280;13818;52.156;5.382;2023-02-19T01:08:28;101491.09;;;10.00;100.00
26043;BME280;13818;52.156;5.382;2023-02-19T01:10:56;101505.31;;;9.99;100.00
26043;BME280;13818;52.156;5.382;2023-02-19T01:13:24;101504.47;;;9.99;100.00
26043;BME280;13818;52.156;5.382;2023-02-19T01:15:51;101502.50;;;10.04;100.00
26043;BME280;13818;52.156;5.382;2023-02-19T01:18:19;101506.81;;;10.08;100.00
26043;BME280;13818;52.156;5.382;2023-02-19T01:20:46;101507.78;;;10.05;100.00
26043;BME280;13818;52.156;5.382;2023-02-19T01:23:12;101507.56;;;10.12;100.00
26043;BME280;13818;52.156;5.382;2023-02-19T01:25:39;101519.16;;;10.10;100.00
26043;BME280;13818;52.156;5.382;2023-02-19T01:28:09;101514.69;;;10.11;100.00
26043;BME280;13818;52.156;5.382;2023-02-19T01:30:37;101512.91;;;10.12;100.00
26043;BME280;13818;52.156;5.382;2023-02-19T01:33:04;101516.53;;;10.09;100.00
26043;BME280;13818;52.156;5.382;2023-02-19T01:35:33;101523.50;;;10.13;100.00
26043;BME280;13818;52.156;5.382;2023-02-19T01:37:59;101519.00;;;10.15;100.00
26043;BME280;13818;52.156;5.382;2023-02-19T01:40:26;101523.41;;;10.16;100.00
26043;BME280;13818;52.156;5.382;2023-02-19T01:42:52;101513.00;;;10.08;100.00
26043;BME280;13818;52.156;5.382;2023-02-19T01:45:25;101522.16;;;10.00;100.00
26043;BME280;13818;52.156;5.382;2023-02-19T01:48:08;101519.34;;;10.04;100.00
26043;BME280;13818;52.156;5.382;2023-02-19T01:50:43;101519.41;;;10.03;100.00
26043;BME280;13818;52.156;5.382;2023-02-19T01:53:11;101522.47;;;9.90;100.00
26043;BME280;13818;52.156;5.382;2023-02-19T01:55:40;101529.53;;;9.91;100.00
26043;BME280;13818;52.156;5.382;2023-02-19T01:58:08;101521.81;;;9.84;100.00
26043;BME280;13818;52.156;5.382;2023-02-19T02:00:35;101520.00;;;9.84;100.00
26043;BME280;13818;52.156;5.382;2023-02-19T02:03:03;101513.81;;;9.84;100.00
26043;BME280;13818;52.156;5.382;2023-02-19T02:05:39;101522.06;;;9.74;100.00
26043;BME280;13818;52.156;5.382;2023-02-19T02:08:07;101523.03;;;9.73;100.00
26043;BME280;13818;52.156;5.382;2023-02-19T02:10:52;101525.69;;;9.73;100.00
26043;BME280;13818;52.156;5.382;2023-02-19T02:13:20;101525.63;;;9.75;100.00
26043;BME280;13818;52.156;5.382;2023-02-19T02:15:51;101526.41;;;9.79;100.00
26043;BME280;13818;52.156;5.382;2023-02-19T02:18:27;101524.72;;;9.76;100.00
26043;BME280;13818;52.156;5.382;2023-02-19T02:21:16;101530.66;;;9.84;100.00
26043;BME280;13818;52.156;5.382;2023-02-19T02:24:04;101533.25;;;9.86;100.00
26043;BME280;13818;52.156;5.382;2023-02-19T02:26:47;101527.19;;;9.82;100.00
26043;BME280;13818;52.156;5.382;2023-02-19T02:32:33;101532.34;;;9.87;100.00
26043;BME280;13818;52.156;5.382;2023-02-19T02:35:07;101536.03;;;9.83;100.00
26043;BME280;13818;52.156;5.382;2023-02-19T02:37:36;101534.34;;;9.80;100.00
26043;BME280;13818;52.156;5.382;2023-02-19T02:40:04;101545.03;;;9.79;100.00
26043;BME280;13818;52.156;5.382;2023-02-19T02:42:32;101539.59;;;9.82;100.00
26043;BME280;13818;52.156;5.382;2023-02-19T02:45:21;101541.59;;;9.75;100.00
26043;BME280;13818;52.156;5.382;2023-02-19T02:48:07;101543.25;;;9.79;100.00
26043;BME280;13818;52.156;5.382;2023-02-19T02:50:40;101544.25;;;9.75;100.00
26043;BME280;13818;52.156;5.382;2023-02-19T02:53:12;101541.41;;;9.81;100.00
26043;BME280;13818;52.156;5.382;2023-02-19T02:55:57;101552.06;;;9.81;100.00
26043;BME280;13818;52.156;5.382;2023-02-19T02:58:26;101545.06;;;9.77;100.00
26043;BME280;13818;52.156;5.382;2023-02-19T03:00:58;101544.13;;;9.80;100.00
26043;BME280;13818;52.156;5.382;2023-02-19T03:03:46;101547.66;;;9.80;100.00
26043;BME280;13818;52.156;5.382;2023-02-19T03:06:16;101547.53;;;9.83;100.00
26043;BME280;13818;52.156;5.382;2023-02-19T03:08:49;101551.16;;;9.81;100.00
26043;BME280;13818;52.156;5.382;2023-02-19T03:11:18;101560.06;;;9.81;100.00
26043;BME280;13818;52.156;5.382;2023-02-19T03:14:09;101558.44;;;9.75;100.00
26043;BME280;13818;52.156;5.382;2023-02-19T03:16:56;101563.56;;;9.82;100.00
26043;BME280;13818;52.156;5.382;2023-02-19T03:19:52;101563.63;;;9.80;100.00
26043;BME280;13818;52.156;5.382;2023-02-19T03:22:22;101562.53;;;9.86;100.00
26043;BME280;13818;52.156;5.382;2023-02-19T03:24:53;101563.56;;;9.82;100.00
26043;BME280;13818;52.156;5.382;2023-02-19T03:27:48;101571.47;;;9.85;100.00
26043;BME280;13818;52.156;5.382;2023-02-19T03:30:19;101569.03;;;9.77;100.00
26043;BME280;13818;52.156;5.382;2023-02-19T03:32:49;101577.13;;;9.74;100.00
26043;BME280;13818;52.156;5.382;2023-02-19T03:35:22;101565.63;;;9.72;100.00
26043;BME280;13818;52.156;5.382;2023-02-19T03:37:54;101580.50;;;9.79;100.00
26043;BME280;13818;52.156;5.382;2023-02-19T03:40:26;101573.31;;;9.83;100.00
26043;BME280;13818;52.156;5.382;2023-02-19T03:43:00;101578.50;;;9.87;100.00
26043;BME280;13818;52.156;5.382;2023-02-19T03:45:36;101581.25;;;9.84;100.00
26043;BME280;13818;52.156;5.382;2023-02-19T03:48:22;101578.94;;;9.73;100.00
26043;BME280;13818;52.156;5.382;2023-02-19T03:51:01;101581.34;;;9.81;100.00
26043;BME280;13818;52.156;5.382;2023-02-19T03:53:33;101595.53;;;9.82;100.00
26043;BME280;13818;52.156;5.382;2023-02-19T03:56:07;101598.09;;;9.85;100.00
26043;BME280;13818;52.156;5.382;2023-02-19T03:58:40;101588.63;;;9.76;100.00
26043;BME280;13818;52.156;5.382;2023-02-19T04:01:14;101596.69;;;9.73;100.00
26043;BME280;13818;52.156;5.382;2023-02-19T04:03:45;101600.31;;;9.70;100.00
26043;BME280;13818;52.156;5.382;2023-02-19T04:06:18;101601.09;;;9.74;100.00
26043;BME280;13818;52.156;5.382;2023-02-19T04:08:50;101598.38;;;9.75;100.00
26043;BME280;13818;52.156;5.382;2023-02-19T04:11:19;101617.16;;;9.71;100.00
26043;BME280;13818;52.156;5.382;2023-02-19T04:13:51;101615.31;;;9.73;100.00
26043;BME280;13818;52.156;5.382;2023-02-19T04:16:23;101623.25;;;9.74;100.00
26043;BME280;13818;52.156;5.382;2023-02-19T04:18:51;101623.28;;;9.73;100.00
26043;BME280;13818;52.156;5.382;2023-02-19T04:21:21;101620.81;;;9.67;100.00
26043;BME280;13818;52.156;5.382;2023-02-19T04:23:49;101628.91;;;9.64;100.00
26043;BME280;13818;52.156;5.382;2023-02-19T04:26:17;101629.88;;;9.61;100.00
26043;BME280;13818;52.156;5.382;2023-02-19T04:28:45;101626.97;;;9.69;100.00
26043;BME280;13818;52.156;5.382;2023-02-19T04:31:12;101646.53;;;9.68;100.00
26043;BME280;13818;52.156;5.382;2023-02-19T04:33:38;101637.94;;;9.58;100.00
26043;BME280;13818;52.156;5.382;2023-02-19T04:36:06;101638.03;;;9.55;100.00
26043;BME280;13818;52.156;5.382;2023-02-19T04:38:36;101651.06;;;9.64;100.00
26043;BME280;13818;52.156;5.382;2023-02-19T04:41:03;101655.53;;;9.64;100.00
26043;BME280;13818;52.156;5.382;2023-02-19T04:43:29;101656.44;;;9.63;100.00
26043;BME280;13818;52.156;5.382;2023-02-19T04:45:59;101663.41;;;9.67;100.00
26043;BME280;13818;52.156;5.382;2023-02-19T04:48:25;101668.72;;;9.68;100.00
26043;BME280;13818;52.156;5.382;2023-02-19T04:50:52;101666.25;;;9.60;100.00
26043;BME280;13818;52.156;5.382;2023-02-19T04:53:18;101675.84;;;9.66;100.00
26043;BME280;13818;52.156;5.382;2023-02-19T04:55:46;101672.22;;;9.69;100.00
26043;BME280;13818;52.156;5.382;2023-02-19T04:58:13;101675.03;;;9.64;100.00
26043;BME280;13818;52.156;5.382;2023-02-19T05:00:39;101692.75;;;9.65;100.00
26043;BME280;13818;52.156;5.382;2023-02-19T05:03:06;101689.22;;;9.65;100.00
26043;BME280;13818;52.156;5.382;2023-02-19T05:05:33;101679.47;;;9.64;100.00
26043;BME280;13818;52.156;5.382;2023-02-19T05:08:00;101692.69;;;9.67;100.00
26043;BME280;13818;52.156;5.382;2023-02-19T05:10:27;101687.34;;;9.68;100.00
26043;BME280;13818;52.156;5.382;2023-02-19T05:12:54;101698.00;;;9.68;100.00
26043;BME280;13818;52.156;5.382;2023-02-19T05:15:21;101702.44;;;9.68;100.00
26043;BME280;13818;52.156;5.382;2023-02-19T05:17:47;101706.16;;;9.60;100.00
26043;BME280;13818;52.156;5.382;2023-02-19T05:20:14;101698.06;;;9.65;100.00
26043;BME280;13818;52.156;5.382;2023-02-19T05:22:40;101712.16;;;9.69;100.00
26043;BME280;13818;52.156;5.382;2023-02-19T05:25:07;101711.31;;;9.68;100.00
26043;BME280;13818;52.156;5.382;2023-02-19T05:27:33;101716.75;;;9.64;100.00
26043;BME280;13818;52.156;5.382;2023-02-19T05:30:01;101724.78;;;9.62;100.00
26043;BME280;13818;52.156;5.382;2023-02-19T05:32:28;101719.53;;;9.59;100.00
26043;BME280;13818;52.156;5.382;2023-02-19T05:34:54;101716.06;;;9.55;100.00
26043;BME280;13818;52.156;5.382;2023-02-19T05:37:21;101719.53;;;9.59;100.00
26043;BME280;13818;52.156;5.382;2023-02-19T05:39:48;101719.75;;;9.51;100.00
26043;BME280;13818;52.156;5.382;2023-02-19T05:42:14;101721.50;;;9.52;100.00
26043;BME280;13818;52.156;5.382;2023-02-19T05:44:41;101722.53;;;9.47;100.00
26043;BME280;13818;52.156;5.382;2023-02-19T05:47:09;101723.31;;;9.50;100.00
26043;BME280;13818;52.156;5.382;2023-02-19T05:49:35;101717.00;;;9.54;100.00
26043;BME280;13818;52.156;5.382;2023-02-19T05:52:02;101719.06;;;9.44;100.00
26043;BME280;13818;52.156;5.382;2023-02-19T05:54:29;101719.91;;;9.45;100.00
26043;BME280;13818;52.156;5.382;2023-02-19T05:56:56;101724.22;;;9.51;100.00
26043;BME280;13818;52.156;5.382;2023-02-19T05:59:23;101731.31;;;9.50;100.00
26043;BME280;13818;52.156;5.382;2023-02-19T06:01:51;101733.28;;;9.43;100.00
26043;BME280;13818;52.156;5.382;2023-02-19T06:04:20;101736.03;;;9.39;100.00
26043;BME280;13818;52.156;5.382;2023-02-19T06:06:47;101735.03;;;9.43;100.00
26043;BME280;13818;52.156;5.382;2023-02-19T06:09:14;101732.44;;;9.41;100.00
26043;BME280;13818;52.156;5.382;2023-02-19T06:11:41;101733.53;;;9.34;100.00
26043;BME280;13818;52.156;5.382;2023-02-19T06:14:10;101738.84;;;9.34;100.00
26043;BME280;13818;52.156;5.382;2023-02-19T06:16:38;101753.88;;;9.35;100.00
26043;BME280;13818;52.156;5.382;2023-02-19T06:19:04;101747.59;;;9.38;100.00
26043;BME280;13818;52.156;5.382;2023-02-19T06:21:32;101766.38;;;9.32;100.00
26043;BME280;13818;52.156;5.382;2023-02-19T06:24:03;101767.19;;;9.35;100.00
26043;BME280;13818;52.156;5.382;2023-02-19T06:26:30;101774.34;;;9.33;100.00
26043;BME280;13818;52.156;5.382;2023-02-19T06:28:56;101779.69;;;9.32;100.00
26043;BME280;13818;52.156;5.382;2023-02-19T06:31:23;101786.00;;;9.27;100.00
26043;BME280;13818;52.156;5.382;2023-02-19T06:33:50;101783.47;;;9.23;100.00
26043;BME280;13818;52.156;5.382;2023-02-19T06:36:18;101791.28;;;9.29;100.00
26043;BME280;13818;52.156;5.382;2023-02-19T06:38:46;101785.19;;;9.25;100.00
26043;BME280;13818;52.156;5.382;2023-02-19T06:41:13;101793.13;;;9.27;100.00
26043;BME280;13818;52.156;5.382;2023-02-19T06:43:40;101799.94;;;9.37;100.00
26043;BME280;13818;52.156;5.382;2023-02-19T06:46:07;101791.06;;;9.38;100.00
26043;BME280;13818;52.156;5.382;2023-02-19T06:48:37;101800.06;;;9.34;100.00
26043;BME280;13818;52.156;5.382;2023-02-19T06:51:04;101802.72;;;9.34;100.00
26043;BME280;13818;52.156;5.382;2023-02-19T06:53:31;101806.28;;;9.32;100.00
26043;BME280;13818;52.156;5.382;2023-02-19T06:56:00;101811.50;;;9.36;100.00
26043;BME280;13818;52.156;5.382;2023-02-19T06:58:27;101820.19;;;9.43;100.00
26043;BME280;13818;52.156;5.382;2023-02-19T07:00:53;101811.56;;;9.35;100.00
26043;BME280;13818;52.156;5.382;2023-02-19T07:03:21;101816.00;;;9.34;100.00
26043;BME280;13818;52.156;5.382;2023-02-19T07:05:48;101826.72;;;9.31;100.00
26043;BME280;13818;52.156;5.382;2023-02-19T07:08:15;101840.81;;;9.35;100.00
26043;BME280;13818;52.156;5.382;2023-02-19T07:10:42;101835.53;;;9.33;100.00
26043;BME280;13818;52.156;5.382;2023-02-19T07:13:10;101841.88;;;9.27;100.00
26043;BME280;13818;52.156;5.382;2023-02-19T07:15:36;101843.38;;;9.38;100.00
26043;BME280;13818;52.156;5.382;2023-02-19T07:18:03;101847.00;;;9.37;100.00
26043;BME280;13818;52.156;5.382;2023-02-19T07:20:31;101844.34;;;9.37;100.00
26043;BME280;13818;52.156;5.382;2023-02-19T07:22:57;101854.13;;;9.35;100.00
26043;BME280;13818;52.156;5.382;2023-02-19T07:25:24;101855.13;;;9.29;100.00
26043;BME280;13818;52.156;5.382;2023-02-19T07:27:50;101863.91;;;9.33;100.00
26043;BME280;13818;52.156;5.382;2023-02-19T07:30:18;101869.22;;;9.34;100.00
26043;BME280;13818;52.156;5.382;2023-02-19T07:32:45;101864.91;;;9.28;100.00
26043;BME280;13818;52.156;5.382;2023-02-19T07:35:12;101875.47;;;9.32;100.00
26043;BME280;13818;52.156;5.382;2023-02-19T07:37:39;101882.53;;;9.34;100.00
26043;BME280;13818;52.156;5.382;2023-02-19T07:40:06;101871.75;;;9.39;100.00
26043;BME280;13818;52.156;5.382;2023-02-19T07:42:33;101875.31;;;9.38;100.00
26043;BME280;13818;52.156;5.382;2023-02-19T07:44:59;101881.41;;;9.43;100.00
26043;BME280;13818;52.156;5.382;2023-02-19T07:47:27;101880.50;;;9.44;100.00
26043;BME280;13818;52.156;5.382;2023-02-19T07:49:54;101885.81;;;9.46;100.00
26043;BME280;13818;52.156;5.382;2023-02-19T07:52:20;101891.09;;;9.47;100.00
26043;BME280;13818;52.156;5.382;2023-02-19T07:55:04;101896.41;;;9.47;100.00
26043;BME280;13818;52.156;5.382;2023-02-19T07:58:20;101899.03;;;9.49;100.00
26043;BME280;13818;52.156;5.382;2023-02-19T08:00:46;101898.03;;;9.53;100.00
26043;BME280;13818;52.156;5.382;2023-02-19T08:03:19;101891.78;;;9.54;100.00
26043;BME280;13818;52.156;5.382;2023-02-19T08:05:46;101910.38;;;9.55;100.00
26043;BME280;13818;52.156;5.382;2023-02-19T08:08:15;101913.84;;;9.59;100.00
26043;BME280;13818;52.156;5.382;2023-02-19T08:10:42;101908.56;;;9.57;100.00
26043;BME280;13818;52.156;5.382;2023-02-19T08:13:27;101918.38;;;9.55;100.00
26043;BME280;13818;52.156;5.382;2023-02-19T08:16:07;101923.53;;;9.61;100.00
26043;BME280;13818;52.156;5.382;2023-02-19T08:18:35;101924.53;;;9.57;100.00
26043;BME280;13818;52.156;5.382;2023-02-19T08:21:02;101941.22;;;9.64;100.00
26043;BME280;13818;52.156;5.382;2023-02-19T08:23:29;101936.09;;;9.56;100.00
26043;BME280;13818;52.156;5.382;2023-02-19T08:25:57;101949.34;;;9.59;100.00
26043;BME280;13818;52.156;5.382;2023-02-19T08:28:24;101950.91;;;9.67;100.00
26043;BME280;13818;52.156;5.382;2023-02-19T08:30:51;101954.00;;;9.50;100.00
26043;BME280;13818;52.156;5.382;2023-02-19T08:33:19;101953.28;;;9.41;100.00
26043;BME280;13818;52.156;5.382;2023-02-19T08:35:48;101962.19;;;9.42;100.00
26043;BME280;13818;52.156;5.382;2023-02-19T08:38:14;101959.19;;;9.54;100.00
26043;BME280;13818;52.156;5.382;2023-02-19T08:40:41;101961.94;;;9.51;100.00
26043;BME280;13818;52.156;5.382;2023-02-19T08:43:10;101969.84;;;9.54;100.00
26043;BME280;13818;52.156;5.382;2023-02-19T08:45:37;101967.97;;;9.59;100.00
26043;BME280;13818;52.156;5.382;2023-02-19T08:48:04;101974.25;;;9.55;100.00
26043;BME280;13818;52.156;5.382;2023-02-19T08:50:33;101980.34;;;9.60;100.00
26043;BME280;13818;52.156;5.382;2023-02-19T08:53:01;101974.06;;;9.65;100.00
26043;BME280;13818;52.156;5.382;2023-02-19T08:55:29;101971.50;;;9.60;100.00
26043;BME280;13818;52.156;5.382;2023-02-19T08:57:55;101956.47;;;9.57;100.00
26043;BME280;13818;52.156;5.382;2023-02-19T09:00:22;101969.56;;;9.67;100.00
26043;BME280;13818;52.156;5.382;2023-02-19T09:02:49;101977.47;;;9.70;100.00
26043;BME280;13818;52.156;5.382;2023-02-19T09:05:16;101974.78;;;9.71;100.00
26043;BME280;13818;52.156;5.382;2023-02-19T09:07:42;101961.22;;;9.82;100.00
26043;BME280;13818;52.156;5.382;2023-02-19T09:10:12;101973.06;;;10.05;100.00
26043;BME280;13818;52.156;5.382;2023-02-19T09:12:38;101980.88;;;10.11;100.00
26043;BME280;13818;52.156;5.382;2023-02-19T09:15:06;101979.91;;;10.15;100.00
26043;BME280;13818;52.156;5.382;2023-02-19T09:17:33;101992.47;;;10.10;100.00
26043;BME280;13818;52.156;5.382;2023-02-19T09:19:59;101998.00;;;10.01;100.00
26043;BME280;13818;52.156;5.382;2023-02-19T09:22:26;101981.13;;;10.02;100.00
26043;BME280;13818;52.156;5.382;2023-02-19T09:24:52;101990.75;;;10.07;100.00
26043;BME280;13818;52.156;5.382;2023-02-19T09:27:20;101990.50;;;10.17;100.00
26043;BME280;13818;52.156;5.382;2023-02-19T09:29:57;102005.28;;;10.30;100.00
26043;BME280;13818;52.156;5.382;2023-02-19T09:32:24;102013.09;;;10.38;100.00
26043;BME280;13818;52.156;5.382;2023-02-19T09:34:50;102028.50;;;10.23;100.00
26043;BME280;13818;52.156;5.382;2023-02-19T09:37:17;102030.16;;;10.29;100.00
26043;BME280;13818;52.156;5.382;2023-02-19T09:39:44;102031.19;;;10.23;100.00
26043;BME280;13818;52.156;5.382;2023-02-19T09:42:13;102032.06;;;10.24;100.00
26043;BME280;13818;52.156;5.382;2023-02-19T09:44:43;102041.03;;;10.21;100.00
26043;BME280;13818;52.156;5.382;2023-02-19T09:47:15;102064.25;;;10.16;100.00
26043;BME280;13818;52.156;5.382;2023-02-19T09:49:45;102061.75;;;10.08;100.00
26043;BME280;13818;52.156;5.382;2023-02-19T09:52:21;102065.19;;;10.14;100.00
26043;BME280;13818;52.156;5.382;2023-02-19T09:54:49;102066.81;;;10.19;100.00
26043;BME280;13818;52.156;5.382;2023-02-19T09:57:22;102072.38;;;10.10;100.00
26043;BME280;13818;52.156;5.382;2023-02-19T09:59:54;102090.34;;;9.63;100.00
26043;BME280;13818;52.156;5.382;2023-02-19T10:02:25;102088.31;;;9.33;100.00
26043;BME280;13818;52.156;5.382;2023-02-19T10:04:52;102096.34;;;9.30;100.00
26043;BME280;13818;52.156;5.382;2023-02-19T10:07:21;102103.56;;;9.25;100.00
26043;BME280;13818;52.156;5.382;2023-02-19T10:09:52;102118.47;;;9.34;100.00
26043;BME280;13818;52.156;5.382;2023-02-19T10:12:24;102122.91;;;9.33;100.00
26043;BME280;13818;52.156;5.382;2023-02-19T10:14:57;102124.78;;;9.28;100.00
26043;BME280;13818;52.156;5.382;2023-02-19T10:17:29;102127.72;;;9.14;100.00
26043;BME280;13818;52.156;5.382;2023-02-19T10:19:59;102137.50;;;9.12;100.00
26043;BME280;13818;52.156;5.382;2023-02-19T10:22:28;102148.88;;;9.22;100.00
26043;BME280;13818;52.156;5.382;2023-02-19T10:24:55;102145.19;;;9.27;100.00
26043;BME280;13818;52.156;5.382;2023-02-19T10:27:25;102150.59;;;9.24;100.00
26043;BME280;13818;52.156;5.382;2023-02-19T10:29:53;102145.97;;;9.34;100.00
26043;BME280;13818;52.156;5.382;2023-02-19T10:32:22;102148.88;;;9.22;100.00
26043;BME280;13818;52.156;5.382;2023-02-19T10:35:07;102161.16;;;9.27;100.00
26043;BME280;13818;52.156;5.382;2023-02-19T10:37:34;102167.13;;;9.39;100.00
26043;BME280;13818;52.156;5.382;2023-02-19T10:40:01;102166.19;;;9.41;100.00
26043;BME280;13818;52.156;5.382;2023-02-19T10:42:28;102162.72;;;9.38;100.00
26043;BME280;13818;52.156;5.382;2023-02-19T10:44:58;102166.69;;;9.60;100.00
26043;BME280;13818;52.156;5.382;2023-02-19T10:47:27;102161.09;;;9.31;100.00
26043;BME280;13818;52.156;5.382;2023-02-19T10:49:56;102161.06;;;9.32;100.00
26043;BME280;13818;52.156;5.382;2023-02-19T10:52:26;102170.63;;;9.42;100.00
26043;BME280;13818;52.156;5.382;2023-02-19T10:54:55;102166.00;;;9.52;100.00
26043;BME280;13818;52.156;5.382;2023-02-19T10:57:27;102162.59;;;9.44;100.00
26043;BME280;13818;52.156;5.382;2023-02-19T11:00:01;102161.69;;;9.45;100.00
26043;BME280;13818;52.156;5.382;2023-02-19T11:02:29;102152.84;;;9.43;100.00
26043;BME280;13818;52.156;5.382;2023-02-19T11:05:15;102146.28;;;9.17;100.00
26043;BME280;13818;52.156;5.382;2023-02-19T11:07:44;102148.44;;;8.97;100.00
26043;BME280;13818;52.156;5.382;2023-02-19T11:10:20;102154.72;;;8.92;100.00
26043;BME280;13818;52.156;5.382;2023-02-19T11:12:50;102160.97;;;8.90;100.00
26043;BME280;13818;52.156;5.382;2023-02-19T11:15:22;102174.50;;;8.77;100.00
26043;BME280;13818;52.156;5.382;2023-02-19T11:18:01;102172.63;;;8.81;100.00
26043;BME280;13818;52.156;5.382;2023-02-19T11:20:29;102179.13;;;8.66;100.00
26043;BME280;13818;52.156;5.382;2023-02-19T11:22:58;102167.59;;;8.66;100.00
26043;BME280;13818;52.156;5.382;2023-02-19T11:25:27;102169.00;;;8.87;100.00
26043;BME280;13818;52.156;5.382;2023-02-19T11:27:55;102184.06;;;8.88;100.00
26043;BME280;13818;52.156;5.382;2023-02-19T11:30:34;102178.63;;;8.92;100.00
26043;BME280;13818;52.156;5.382;2023-02-19T11:33:23;102169.84;;;8.90;100.00
26043;BME280;13818;52.156;5.382;2023-02-19T11:35:54;102183.41;;;8.73;100.00
26043;BME280;13818;52.156;5.382;2023-02-19T11:38:24;102184.34;;;8.71;100.00
26043;BME280;13818;52.156;5.382;2023-02-19T11:40:54;102193.03;;;8.81;100.00
26043;BME280;13818;52.156;5.382;2023-02-19T11:43:47;102189.78;;;8.63;100.00
26043;BME280;13818;52.156;5.382;2023-02-19T11:46:25;102189.75;;;8.66;100.00
26043;BME280;13818;52.156;5.382;2023-02-19T11:49:04;102196.56;;;8.83;100.00
26043;BME280;13818;52.156;5.382;2023-02-19T11:51:44;102187.78;;;8.77;100.00
26043;BME280;13818;52.156;5.382;2023-02-19T11:54:29;102177.91;;;8.84;100.00
26043;BME280;13818;52.156;5.382;2023-02-19T11:57:08;102175.06;;;8.97;100.00
26043;BME280;13818;52.156;5.382;2023-02-19T11:59:43;102174.88;;;9.06;100.00
26043;BME280;13818;52.156;5.382;2023-02-19T12:02:36;102174.00;;;9.04;100.00
26043;BME280;13818;52.156;5.382;2023-02-19T12:05:30;102188.38;;;8.93;100.00
26043;BME280;13818;52.156;5.382;2023-02-19T12:08:21;102186.03;;;8.75;100.00
26043;BME280;13818;52.156;5.382;2023-02-19T12:14:23;102195.63;;;8.85;100.00
26043;BME280;13818;52.156;5.382;2023-02-19T12:16:59;102197.50;;;8.78;100.00
26043;BME280;13818;52.156;5.382;2023-02-19T12:19:39;102194.19;;;8.66;100.00
26043;BME280;13818;52.156;5.382;2023-02-19T12:22:16;102208.34;;;8.68;100.00
26043;BME280;13818;52.156;5.382;2023-02-19T12:25:03;102205.69;;;8.66;100.00
26043;BME280;13818;52.156;5.382;2023-02-19T12:27:42;102197.72;;;8.66;100.00
26043;BME280;13818;52.156;5.382;2023-02-19T12:30:22;102200.56;;;8.54;100.00
26043;BME280;13818;52.156;5.382;2023-02-19T12:36:00;102203.34;;;8.43;100.00
26043;BME280;13818;52.156;5.382;2023-02-19T12:38:30;102212.16;;;8.48;100.00
26043;BME280;13818;52.156;5.382;2023-02-19T12:41:17;102217.59;;;8.39;100.00
26043;BME280;13818;52.156;5.382;2023-02-19T12:43:52;102208.84;;;8.30;100.00
26043;BME280;13818;52.156;5.382;2023-02-19T12:46:22;102223.66;;;8.50;100.00
26043;BME280;13818;52.156;5.382;2023-02-19T12:48:55;102226.47;;;8.38;100.00
26043;BME280;13818;52.156;5.382;2023-02-19T12:51:29;102231.66;;;8.47;100.00
26043;BME280;13818;52.156;5.382;2023-02-19T12:54:00;102229.16;;;8.36;100.00
26043;BME280;13818;52.156;5.382;2023-02-19T12:56:32;102235.25;;;8.43;100.00
26043;BME280;13818;52.156;5.382;2023-02-19T12:59:03;102240.63;;;8.38;100.00
26043;BME280;13818;52.156;5.382;2023-02-19T13:01:34;102265.34;;;8.46;100.00
26043;BME280;13818;52.156;5.382;2023-02-19T13:04:24;102245.94;;;8.40;100.00
26043;BME280;13818;52.156;5.382;2023-02-19T13:07:00;102247.63;;;8.44;100.00
26043;BME280;13818;52.156;5.382;2023-02-19T13:09:32;102243.47;;;8.24;100.00
26043;BME280;13818;52.156;5.382;2023-02-19T13:12:03;102253.84;;;8.43;100.00
26043;BME280;13818;52.156;5.382;2023-02-19T13:14:33;102261.69;;;8.55;100.00
26043;BME280;13818;52.156;5.382;2023-02-19T13:17:07;102271.78;;;8.28;100.00